You are not logged in, Click here to log in
機場資訊:EGLL Welcome to Taiwan Airways 台灣虛擬航空
ICAO: EGLL Country: 英國英格蘭大倫敦希靈登區,離倫敦中心有15英里遠
Latitude: 51.47 Longitude: -0.454295
Total Arrivals: 18 Total Departures: 31
Latest Arrival: CX2067 (LFPG-EGLL)KE. CHIH-HAO Latest Departure: CX2067 (EGLL-EBBR)KE. CHIH-HAO
Scenery:
METAR : EGLL 211250Z AUTO 36007KT 320V040 9999 BKN022/// 13/10 Q1019 NOSIG

倫敦希斯洛機場LHR